Данни от 16.12.2017 г. 13:21:49

Температура вътрешна: 20.5 °C
Температура външна: 17.1 °C
Атмосферно налягане: 986.2 hPa
Атмосферно налягане на морско равнище: 1003.8 hPa
Влажност: 51.2 %



История от последните 24 часа

Дата и часTin [°C]P [hPa]Psl [hPa]H [%]Tout [°C]
   16.12.2017 г. 13:00:49      20.4      986.1      1003.7      50.6      17.1   
   16.12.2017 г. 12:30:50      20.4      986.3      1003.9      50.5      17.0   
   16.12.2017 г. 12:00:50      20.2      986.2      1003.8      50.0      16.3   
   16.12.2017 г. 11:30:50      20.2      986.4      1004.0      50.2      15.9   
   16.12.2017 г. 11:00:50      20.2      986.6      1004.2      49.5      15.5   
   16.12.2017 г. 10:30:51      20.2      986.0      1003.6      48.9      15.1   
   16.12.2017 г. 10:00:51      20.2      985.5      1003.1      48.2      14.9   
   16.12.2017 г. 09:30:52      20.2      984.9      1002.5      48.6      14.5   
   16.12.2017 г. 09:00:52      20.2      984.8      1002.3      48.9      14.3   
   16.12.2017 г. 08:30:52      20.4      984.8      1002.4      48.9      14.1   
   16.12.2017 г. 08:00:52      20.5      985.1      1002.7      48.4      13.9   
   16.12.2017 г. 07:30:53      21.0      984.8      1002.3      50.9      13.8   
   16.12.2017 г. 07:00:53      21.0      984.9      1002.5      50.8      13.6   
   16.12.2017 г. 06:30:54      21.1      985.2      1002.8      51.1      13.4   
   16.12.2017 г. 06:00:54      21.1      985.6      1003.1      50.9      13.3   
   16.12.2017 г. 05:30:54      21.2      985.5      1003.1      50.9      13.3   
   16.12.2017 г. 05:00:54      21.2      985.6      1003.2      50.8      13.1   
   16.12.2017 г. 04:30:54      21.3      985.6      1003.2      51.8      12.9   
   16.12.2017 г. 04:00:55      21.4      986.2      1003.8      51.9      12.5   
   16.12.2017 г. 03:30:55      21.5      986.4      1004.0      51.7      12.6   
   16.12.2017 г. 03:00:56      21.5      986.6      1004.2      50.9      13.0   
   16.12.2017 г. 02:30:55      21.6      986.6      1004.2      51.3      13.0   
   16.12.2017 г. 02:00:56      21.7      986.6      1004.2      51.4      13.0   
   16.12.2017 г. 01:30:56      21.8      986.9      1004.5      51.8      12.8   
   16.12.2017 г. 01:00:56      21.9      987.4      1005.0      51.6      11.8   
   16.12.2017 г. 00:30:56      21.8      987.6      1005.3      51.4      12.0   
   16.12.2017 г. 00:00:57      21.8      987.9      1005.5      51.2      12.3   
   15.12.2017 г. 23:30:43      21.8      988.1      1005.7      51.6      12.5   
   15.12.2017 г. 23:00:44      21.7      988.4      1006.0      52.0      12.8   
   15.12.2017 г. 22:30:44      21.6      988.4      1006.1      51.7      13.1   
   15.12.2017 г. 22:00:45      21.6      988.8      1006.4      52.0      13.0   
   15.12.2017 г. 21:30:45      21.6      989.2      1006.9      52.6      12.9   
   15.12.2017 г. 21:00:46      21.3      989.7      1007.4      52.6      12.6   
   15.12.2017 г. 20:30:46      21.3      989.8      1007.5      52.2      12.6   
   15.12.2017 г. 20:00:47      21.2      989.9      1007.6      52.2      13.0   
   15.12.2017 г. 19:30:47      21.1      990.0      1007.7      52.3      13.3   
   15.12.2017 г. 19:00:48      21.1      990.1      1007.8      52.8      13.6   
   15.12.2017 г. 18:30:48      21.0      990.0      1007.7      52.6      13.8   
   15.12.2017 г. 18:00:49      21.0      990.3      1008.0      52.2      13.9   
   15.12.2017 г. 17:30:49      21.0      990.8      1008.5      51.4      14.3   
   15.12.2017 г. 17:00:50      21.0      990.8      1008.5      52.4      14.5   
   15.12.2017 г. 16:30:50      21.0      990.8      1008.5      52.8      15.9   
   15.12.2017 г. 16:00:51      20.8      991.0      1008.7      52.5      16.3   
   15.12.2017 г. 15:30:51      20.7      991.3      1009.0      52.1      16.9   
   15.12.2017 г. 15:00:51      20.5      991.3      1009.0      51.9      16.0   
   15.12.2017 г. 14:30:52      20.5      991.4      1009.1      51.4      15.8   
   15.12.2017 г. 14:00:51      20.3      991.6      1009.3      52.0      14.6   
   15.12.2017 г. 13:30:52      20.2      992.2      1009.9      52.2      13.4   

BaroSL graphic

TEMPE graphic